sensor_id;sensor_type;location;lat;lon;timestamp;P1;durP1;ratioP1;P2;durP2;ratioP2
20040;SDS011;10181;48.072;9.884;2023-02-18T00:02:10;8.10;;;7.83;;
20040;SDS011;10181;48.072;9.884;2023-02-18T00:04:35;6.87;;;6.57;;
20040;SDS011;10181;48.072;9.884;2023-02-18T00:07:01;12.40;;;11.97;;
20040;SDS011;10181;48.072;9.884;2023-02-18T00:09:27;6.67;;;6.47;;
20040;SDS011;10181;48.072;9.884;2023-02-18T00:11:52;7.57;;;7.17;;
20040;SDS011;10181;48.072;9.884;2023-02-18T00:14:18;7.83;;;7.53;;
20040;SDS011;10181;48.072;9.884;2023-02-18T00:16:44;12.07;;;11.63;;
20040;SDS011;10181;48.072;9.884;2023-02-18T00:19:15;12.80;;;12.27;;
20040;SDS011;10181;48.072;9.884;2023-02-18T00:21:42;6.60;;;6.40;;
20040;SDS011;10181;48.072;9.884;2023-02-18T00:24:08;12.03;;;11.57;;
20040;SDS011;10181;48.072;9.884;2023-02-18T00:26:39;13.57;;;13.17;;
20040;SDS011;10181;48.072;9.884;2023-02-18T00:29:05;14.90;;;14.30;;
20040;SDS011;10181;48.072;9.884;2023-02-18T00:31:34;10.87;;;10.40;;
20040;SDS011;10181;48.072;9.884;2023-02-18T00:34:01;19.37;;;18.60;;
20040;SDS011;10181;48.072;9.884;2023-02-18T00:36:28;21.83;;;20.93;;
20040;SDS011;10181;48.072;9.884;2023-02-18T00:38:58;19.87;;;18.87;;
20040;SDS011;10181;48.072;9.884;2023-02-18T00:41:26;19.73;;;18.83;;
20040;SDS011;10181;48.072;9.884;2023-02-18T00:43:52;21.17;;;20.27;;
20040;SDS011;10181;48.072;9.884;2023-02-18T00:46:19;18.80;;;17.97;;
20040;SDS011;10181;48.072;9.884;2023-02-18T00:48:45;19.83;;;19.00;;
20040;SDS011;10181;48.072;9.884;2023-02-18T00:51:10;21.63;;;20.77;;
20040;SDS011;10181;48.072;9.884;2023-02-18T00:53:37;22.00;;;21.10;;
20040;SDS011;10181;48.072;9.884;2023-02-18T00:56:03;17.30;;;16.70;;
20040;SDS011;10181;48.072;9.884;2023-02-18T00:58:30;17.93;;;17.10;;
20040;SDS011;10181;48.072;9.884;2023-02-18T01:00:56;19.17;;;18.37;;
20040;SDS011;10181;48.072;9.884;2023-02-18T01:03:22;16.37;;;15.77;;
20040;SDS011;10181;48.072;9.884;2023-02-18T01:05:48;14.60;;;13.90;;
20040;SDS011;10181;48.072;9.884;2023-02-18T01:08:15;12.77;;;12.30;;
20040;SDS011;10181;48.072;9.884;2023-02-18T01:10:43;14.77;;;14.17;;
20040;SDS011;10181;48.072;9.884;2023-02-18T01:13:10;12.97;;;12.37;;
20040;SDS011;10181;48.072;9.884;2023-02-18T01:15:37;6.93;;;6.53;;
20040;SDS011;10181;48.072;9.884;2023-02-18T01:18:03;5.27;;;4.93;;
20040;SDS011;10181;48.072;9.884;2023-02-18T01:20:29;7.60;;;7.20;;
20040;SDS011;10181;48.072;9.884;2023-02-18T01:22:55;11.63;;;11.03;;
20040;SDS011;10181;48.072;9.884;2023-02-18T01:25:21;11.70;;;11.20;;
20040;SDS011;10181;48.072;9.884;2023-02-18T01:27:46;7.70;;;7.20;;
20040;SDS011;10181;48.072;9.884;2023-02-18T01:30:13;7.23;;;6.87;;
20040;SDS011;10181;48.072;9.884;2023-02-18T01:32:40;5.13;;;4.73;;
20040;SDS011;10181;48.072;9.884;2023-02-18T01:35:06;6.67;;;6.33;;
20040;SDS011;10181;48.072;9.884;2023-02-18T01:37:34;9.37;;;8.67;;
20040;SDS011;10181;48.072;9.884;2023-02-18T01:40:00;5.93;;;5.63;;
20040;SDS011;10181;48.072;9.884;2023-02-18T01:42:26;5.77;;;5.13;;
20040;SDS011;10181;48.072;9.884;2023-02-18T01:44:53;6.13;;;5.83;;
20040;SDS011;10181;48.072;9.884;2023-02-18T01:47:39;6.33;;;5.83;;
20040;SDS011;10181;48.072;9.884;2023-02-18T01:50:05;10.67;;;10.17;;
20040;SDS011;10181;48.072;9.884;2023-02-18T01:52:31;12.43;;;11.90;;
20040;SDS011;10181;48.072;9.884;2023-02-18T01:54:57;13.93;;;13.40;;
20040;SDS011;10181;48.072;9.884;2023-02-18T01:57:29;26.53;;;25.23;;
20040;SDS011;10181;48.072;9.884;2023-02-18T01:59:59;49.07;;;47.07;;
20040;SDS011;10181;48.072;9.884;2023-02-18T02:02:30;55.37;;;53.20;;
20040;SDS011;10181;48.072;9.884;2023-02-18T02:04:59;36.37;;;34.97;;
20040;SDS011;10181;48.072;9.884;2023-02-18T02:07:25;59.70;;;57.20;;
20040;SDS011;10181;48.072;9.884;2023-02-18T02:09:52;50.97;;;48.93;;
20040;SDS011;10181;48.072;9.884;2023-02-18T02:12:39;67.73;;;65.17;;
20040;SDS011;10181;48.072;9.884;2023-02-18T02:18:13;92.90;;;89.23;;
20040;SDS011;10181;48.072;9.884;2023-02-18T02:29:32;70.73;;;67.93;;
20040;SDS011;10181;48.072;9.884;2023-02-18T02:35:08;80.70;;;77.60;;
20040;SDS011;10181;48.072;9.884;2023-02-18T02:38:01;61.53;;;59.10;;
20040;SDS011;10181;48.072;9.884;2023-02-18T02:43:05;42.77;;;41.17;;
20040;SDS011;10181;48.072;9.884;2023-02-18T02:48:21;30.23;;;29.13;;
20040;SDS011;10181;48.072;9.884;2023-02-18T02:51:02;26.17;;;25.17;;
20040;SDS011;10181;48.072;9.884;2023-02-18T02:54:07;20.77;;;19.97;;
20040;SDS011;10181;48.072;9.884;2023-02-18T02:56:44;11.43;;;11.00;;
20040;SDS011;10181;48.072;9.884;2023-02-18T02:59:12;14.33;;;13.83;;
20040;SDS011;10181;48.072;9.884;2023-02-18T03:12:57;16.63;;;16.03;;
20040;SDS011;10181;48.072;9.884;2023-02-18T03:18:30;17.63;;;17.03;;
20040;SDS011;10181;48.072;9.884;2023-02-18T03:23:59;25.07;;;24.17;;
20040;SDS011;10181;48.072;9.884;2023-02-18T03:26:33;20.43;;;19.70;;
20040;SDS011;10181;48.072;9.884;2023-02-18T03:29:03;32.30;;;31.10;;
20040;SDS011;10181;48.072;9.884;2023-02-18T03:31:33;35.93;;;34.63;;
20040;SDS011;10181;48.072;9.884;2023-02-18T03:34:01;29.30;;;28.23;;
20040;SDS011;10181;48.072;9.884;2023-02-18T03:36:32;36.73;;;35.37;;
20040;SDS011;10181;48.072;9.884;2023-02-18T03:39:03;43.87;;;42.27;;
20040;SDS011;10181;48.072;9.884;2023-02-18T03:41:40;39.07;;;37.60;;
20040;SDS011;10181;48.072;9.884;2023-02-18T03:44:07;42.30;;;40.60;;
20040;SDS011;10181;48.072;9.884;2023-02-18T03:46:33;33.03;;;31.77;;
20040;SDS011;10181;48.072;9.884;2023-02-18T03:49:01;41.60;;;40.00;;
20040;SDS011;10181;48.072;9.884;2023-02-18T03:51:27;39.97;;;38.47;;
20040;SDS011;10181;48.072;9.884;2023-02-18T03:53:53;43.03;;;41.43;;
20040;SDS011;10181;48.072;9.884;2023-02-18T03:56:19;36.83;;;35.40;;
20040;SDS011;10181;48.072;9.884;2023-02-18T03:58:45;33.53;;;32.23;;
20040;SDS011;10181;48.072;9.884;2023-02-18T04:01:11;25.30;;;24.47;;
20040;SDS011;10181;48.072;9.884;2023-02-18T04:03:36;16.13;;;15.60;;
20040;SDS011;10181;48.072;9.884;2023-02-18T04:06:02;23.53;;;22.73;;
20040;SDS011;10181;48.072;9.884;2023-02-18T04:08:28;27.57;;;26.43;;
20040;SDS011;10181;48.072;9.884;2023-02-18T04:10:53;22.70;;;21.90;;
20040;SDS011;10181;48.072;9.884;2023-02-18T04:13:19;30.03;;;28.97;;
20040;SDS011;10181;48.072;9.884;2023-02-18T04:15:45;29.33;;;28.23;;
20040;SDS011;10181;48.072;9.884;2023-02-18T04:18:13;40.37;;;38.87;;
20040;SDS011;10181;48.072;9.884;2023-02-18T04:20:39;36.53;;;35.13;;
20040;SDS011;10181;48.072;9.884;2023-02-18T04:23:05;36.60;;;35.30;;
20040;SDS011;10181;48.072;9.884;2023-02-18T04:25:30;31.73;;;30.63;;
20040;SDS011;10181;48.072;9.884;2023-02-18T04:27:56;45.53;;;43.83;;
20040;SDS011;10181;48.072;9.884;2023-02-18T04:30:22;36.23;;;34.93;;
20040;SDS011;10181;48.072;9.884;2023-02-18T04:32:47;27.70;;;26.73;;
20040;SDS011;10181;48.072;9.884;2023-02-18T04:35:13;19.77;;;19.17;;
20040;SDS011;10181;48.072;9.884;2023-02-18T04:37:39;18.23;;;17.63;;
20040;SDS011;10181;48.072;9.884;2023-02-18T04:40:05;16.90;;;16.20;;
20040;SDS011;10181;48.072;9.884;2023-02-18T04:42:31;15.07;;;14.43;;
20040;SDS011;10181;48.072;9.884;2023-02-18T04:44:57;15.30;;;14.70;;
20040;SDS011;10181;48.072;9.884;2023-02-18T04:47:22;6.17;;;5.97;;
20040;SDS011;10181;48.072;9.884;2023-02-18T04:49:48;8.30;;;8.00;;
20040;SDS011;10181;48.072;9.884;2023-02-18T04:52:13;8.17;;;7.87;;
20040;SDS011;10181;48.072;9.884;2023-02-18T04:54:39;16.57;;;15.93;;
20040;SDS011;10181;48.072;9.884;2023-02-18T04:57:05;30.73;;;29.50;;
20040;SDS011;10181;48.072;9.884;2023-02-18T04:59:30;22.43;;;21.63;;
20040;SDS011;10181;48.072;9.884;2023-02-18T05:01:56;9.33;;;8.97;;
20040;SDS011;10181;48.072;9.884;2023-02-18T05:04:22;10.13;;;9.70;;
20040;SDS011;10181;48.072;9.884;2023-02-18T05:06:47;9.40;;;9.00;;
20040;SDS011;10181;48.072;9.884;2023-02-18T05:09:13;27.13;;;24.83;;
20040;SDS011;10181;48.072;9.884;2023-02-18T05:11:40;30.53;;;28.40;;
20040;SDS011;10181;48.072;9.884;2023-02-18T05:14:06;30.93;;;28.13;;
20040;SDS011;10181;48.072;9.884;2023-02-18T05:16:31;18.17;;;17.07;;
20040;SDS011;10181;48.072;9.884;2023-02-18T05:18:57;13.77;;;13.10;;
20040;SDS011;10181;48.072;9.884;2023-02-18T05:21:23;15.37;;;14.77;;
20040;SDS011;10181;48.072;9.884;2023-02-18T05:23:48;14.77;;;13.93;;
20040;SDS011;10181;48.072;9.884;2023-02-18T05:26:14;14.93;;;14.30;;
20040;SDS011;10181;48.072;9.884;2023-02-18T05:28:39;11.33;;;10.93;;
20040;SDS011;10181;48.072;9.884;2023-02-18T05:31:05;10.63;;;10.23;;
20040;SDS011;10181;48.072;9.884;2023-02-18T05:33:30;10.03;;;9.63;;
20040;SDS011;10181;48.072;9.884;2023-02-18T05:35:56;12.73;;;12.33;;
20040;SDS011;10181;48.072;9.884;2023-02-18T05:38:22;12.10;;;11.50;;
20040;SDS011;10181;48.072;9.884;2023-02-18T05:40:47;13.50;;;13.00;;
20040;SDS011;10181;48.072;9.884;2023-02-18T05:43:13;8.50;;;8.10;;
20040;SDS011;10181;48.072;9.884;2023-02-18T05:45:39;7.73;;;7.43;;
20040;SDS011;10181;48.072;9.884;2023-02-18T05:48:05;6.87;;;6.57;;
20040;SDS011;10181;48.072;9.884;2023-02-18T05:50:30;8.23;;;7.87;;
20040;SDS011;10181;48.072;9.884;2023-02-18T05:52:57;7.97;;;7.67;;
20040;SDS011;10181;48.072;9.884;2023-02-18T05:55:22;6.93;;;6.63;;
20040;SDS011;10181;48.072;9.884;2023-02-18T05:57:48;7.47;;;7.17;;
20040;SDS011;10181;48.072;9.884;2023-02-18T06:00:14;8.00;;;7.70;;
20040;SDS011;10181;48.072;9.884;2023-02-18T06:02:40;7.00;;;6.73;;
20040;SDS011;10181;48.072;9.884;2023-02-18T06:05:07;9.97;;;9.67;;
20040;SDS011;10181;48.072;9.884;2023-02-18T06:07:33;12.07;;;11.67;;
20040;SDS011;10181;48.072;9.884;2023-02-18T06:09:58;23.63;;;22.73;;
20040;SDS011;10181;48.072;9.884;2023-02-18T06:12:24;38.53;;;37.10;;
20040;SDS011;10181;48.072;9.884;2023-02-18T06:14:49;40.17;;;38.70;;
20040;SDS011;10181;48.072;9.884;2023-02-18T06:17:15;23.13;;;22.40;;
20040;SDS011;10181;48.072;9.884;2023-02-18T06:19:43;26.27;;;25.33;;
20040;SDS011;10181;48.072;9.884;2023-02-18T06:22:09;16.37;;;15.77;;
20040;SDS011;10181;48.072;9.884;2023-02-18T06:24:36;12.43;;;12.03;;
20040;SDS011;10181;48.072;9.884;2023-02-18T06:27:02;15.33;;;14.83;;
20040;SDS011;10181;48.072;9.884;2023-02-18T06:29:29;9.47;;;9.17;;
20040;SDS011;10181;48.072;9.884;2023-02-18T06:31:55;9.67;;;9.37;;
20040;SDS011;10181;48.072;9.884;2023-02-18T06:34:24;9.07;;;8.77;;
20040;SDS011;10181;48.072;9.884;2023-02-18T06:36:51;10.73;;;10.43;;
20040;SDS011;10181;48.072;9.884;2023-02-18T06:39:17;15.30;;;14.77;;
20040;SDS011;10181;48.072;9.884;2023-02-18T06:41:43;9.80;;;9.50;;
20040;SDS011;10181;48.072;9.884;2023-02-18T06:44:09;11.77;;;11.37;;
20040;SDS011;10181;48.072;9.884;2023-02-18T06:46:35;19.57;;;18.87;;
20040;SDS011;10181;48.072;9.884;2023-02-18T06:49:01;13.37;;;12.97;;
20040;SDS011;10181;48.072;9.884;2023-02-18T06:51:27;16.60;;;16.10;;
20040;SDS011;10181;48.072;9.884;2023-02-18T06:53:53;16.30;;;15.77;;
20040;SDS011;10181;48.072;9.884;2023-02-18T06:56:19;11.90;;;11.50;;
20040;SDS011;10181;48.072;9.884;2023-02-18T06:58:44;11.60;;;11.20;;
20040;SDS011;10181;48.072;9.884;2023-02-18T07:01:10;14.07;;;13.67;;
20040;SDS011;10181;48.072;9.884;2023-02-18T07:03:35;16.10;;;15.60;;
20040;SDS011;10181;48.072;9.884;2023-02-18T07:06:01;15.07;;;14.57;;
20040;SDS011;10181;48.072;9.884;2023-02-18T07:08:27;15.73;;;15.13;;
20040;SDS011;10181;48.072;9.884;2023-02-18T07:10:54;14.83;;;14.37;;
20040;SDS011;10181;48.072;9.884;2023-02-18T07:13:20;15.50;;;14.90;;
20040;SDS011;10181;48.072;9.884;2023-02-18T07:15:46;14.27;;;13.83;;
20040;SDS011;10181;48.072;9.884;2023-02-18T07:18:11;16.63;;;16.07;;
20040;SDS011;10181;48.072;9.884;2023-02-18T07:20:37;20.43;;;19.80;;
20040;SDS011;10181;48.072;9.884;2023-02-18T07:23:03;16.03;;;15.53;;
20040;SDS011;10181;48.072;9.884;2023-02-18T07:25:29;16.33;;;15.83;;
20040;SDS011;10181;48.072;9.884;2023-02-18T07:27:55;29.43;;;28.33;;
20040;SDS011;10181;48.072;9.884;2023-02-18T07:30:21;20.90;;;20.20;;
20040;SDS011;10181;48.072;9.884;2023-02-18T07:32:47;34.93;;;33.63;;
20040;SDS011;10181;48.072;9.884;2023-02-18T07:35:13;30.97;;;29.90;;
20040;SDS011;10181;48.072;9.884;2023-02-18T07:37:42;35.23;;;33.93;;
20040;SDS011;10181;48.072;9.884;2023-02-18T07:40:10;47.57;;;45.73;;
20040;SDS011;10181;48.072;9.884;2023-02-18T07:42:38;52.27;;;50.30;;
20040;SDS011;10181;48.072;9.884;2023-02-18T07:45:04;64.27;;;61.87;;
20040;SDS011;10181;48.072;9.884;2023-02-18T07:47:30;72.73;;;70.00;;
20040;SDS011;10181;48.072;9.884;2023-02-18T07:49:55;84.00;;;80.77;;
20040;SDS011;10181;48.072;9.884;2023-02-18T07:52:21;78.83;;;75.80;;
20040;SDS011;10181;48.072;9.884;2023-02-18T07:54:47;92.93;;;89.50;;
20040;SDS011;10181;48.072;9.884;2023-02-18T07:57:12;84.17;;;81.03;;
20040;SDS011;10181;48.072;9.884;2023-02-18T07:59:38;94.57;;;90.40;;
20040;SDS011;10181;48.072;9.884;2023-02-18T08:02:03;75.70;;;72.53;;
20040;SDS011;10181;48.072;9.884;2023-02-18T08:04:31;33.63;;;32.43;;
20040;SDS011;10181;48.072;9.884;2023-02-18T08:06:57;25.23;;;24.37;;
20040;SDS011;10181;48.072;9.884;2023-02-18T08:09:23;5.80;;;5.60;;
20040;SDS011;10181;48.072;9.884;2023-02-18T08:11:48;1.63;;;1.60;;
20040;SDS011;10181;48.072;9.884;2023-02-18T08:14:14;1.43;;;1.33;;
20040;SDS011;10181;48.072;9.884;2023-02-18T08:16:40;0.93;;;0.93;;
20040;SDS011;10181;48.072;9.884;2023-02-18T08:19:05;1.83;;;1.10;;
20040;SDS011;10181;48.072;9.884;2023-02-18T08:21:32;2.97;;;2.87;;
20040;SDS011;10181;48.072;9.884;2023-02-18T08:23:58;2.33;;;2.27;;
20040;SDS011;10181;48.072;9.884;2023-02-18T08:26:24;1.83;;;1.83;;
20040;SDS011;10181;48.072;9.884;2023-02-18T08:28:50;1.20;;;1.20;;
20040;SDS011;10181;48.072;9.884;2023-02-18T08:31:17;1.73;;;1.67;;
20040;SDS011;10181;48.072;9.884;2023-02-18T08:33:45;1.77;;;1.70;;
20040;SDS011;10181;48.072;9.884;2023-02-18T08:36:11;1.00;;;1.00;;
20040;SDS011;10181;48.072;9.884;2023-02-18T08:38:37;1.10;;;1.10;;
20040;SDS011;10181;48.072;9.884;2023-02-18T08:41:04;1.30;;;1.30;;
20040;SDS011;10181;48.072;9.884;2023-02-18T08:43:31;1.10;;;1.10;;
20040;SDS011;10181;48.072;9.884;2023-02-18T08:45:57;1.50;;;1.40;;
20040;SDS011;10181;48.072;9.884;2023-02-18T08:48:23;1.30;;;1.30;;
20040;SDS011;10181;48.072;9.884;2023-02-18T08:50:48;1.20;;;1.20;;
20040;SDS011;10181;48.072;9.884;2023-02-18T08:53:14;1.20;;;1.20;;
20040;SDS011;10181;48.072;9.884;2023-02-18T08:55:41;1.43;;;1.43;;
20040;SDS011;10181;48.072;9.884;2023-02-18T08:58:07;1.00;;;1.00;;
20040;SDS011;10181;48.072;9.884;2023-02-18T09:00:33;1.30;;;1.20;;
20040;SDS011;10181;48.072;9.884;2023-02-18T09:02:59;1.00;;;1.00;;
20040;SDS011;10181;48.072;9.884;2023-02-18T09:05:24;1.73;;;1.73;;
20040;SDS011;10181;48.072;9.884;2023-02-18T09:07:50;1.00;;;1.00;;
20040;SDS011;10181;48.072;9.884;2023-02-18T09:10:16;1.50;;;1.50;;
20040;SDS011;10181;48.072;9.884;2023-02-18T09:12:41;1.30;;;1.30;;
20040;SDS011;10181;48.072;9.884;2023-02-18T09:15:07;1.00;;;1.00;;
20040;SDS011;10181;48.072;9.884;2023-02-18T09:17:33;3.87;;;3.73;;
20040;SDS011;10181;48.072;9.884;2023-02-18T09:19:59;1.03;;;1.03;;
20040;SDS011;10181;48.072;9.884;2023-02-18T09:22:24;1.90;;;1.73;;
20040;SDS011;10181;48.072;9.884;2023-02-18T09:24:50;2.30;;;2.30;;
20040;SDS011;10181;48.072;9.884;2023-02-18T09:27:15;6.47;;;6.30;;
20040;SDS011;10181;48.072;9.884;2023-02-18T09:29:41;2.40;;;2.30;;
20040;SDS011;10181;48.072;9.884;2023-02-18T09:32:07;2.27;;;2.20;;
20040;SDS011;10181;48.072;9.884;2023-02-18T09:34:33;2.63;;;2.53;;
20040;SDS011;10181;48.072;9.884;2023-02-18T09:36:59;4.87;;;4.77;;
20040;SDS011;10181;48.072;9.884;2023-02-18T09:39:25;7.90;;;7.50;;
20040;SDS011;10181;48.072;9.884;2023-02-18T09:41:51;17.20;;;16.63;;
20040;SDS011;10181;48.072;9.884;2023-02-18T09:44:29;9.17;;;8.87;;
20040;SDS011;10181;48.072;9.884;2023-02-18T09:47:04;9.63;;;9.43;;
20040;SDS011;10181;48.072;9.884;2023-02-18T09:49:36;6.33;;;5.83;;
20040;SDS011;10181;48.072;9.884;2023-02-18T09:54:38;1.70;;;1.70;;
20040;SDS011;10181;48.072;9.884;2023-02-18T09:57:04;3.67;;;3.47;;
20040;SDS011;10181;48.072;9.884;2023-02-18T09:59:37;1.30;;;1.30;;
20040;SDS011;10181;48.072;9.884;2023-02-18T10:02:03;1.87;;;1.87;;
20040;SDS011;10181;48.072;9.884;2023-02-18T10:04:36;3.30;;;3.20;;
20040;SDS011;10181;48.072;9.884;2023-02-18T10:07:05;6.47;;;6.27;;
20040;SDS011;10181;48.072;9.884;2023-02-18T10:09:41;7.80;;;7.60;;
20040;SDS011;10181;48.072;9.884;2023-02-18T10:12:18;19.37;;;18.63;;
20040;SDS011;10181;48.072;9.884;2023-02-18T10:14:48;7.37;;;7.17;;
20040;SDS011;10181;48.072;9.884;2023-02-18T10:17:18;8.83;;;8.63;;
20040;SDS011;10181;48.072;9.884;2023-02-18T10:19:46;10.40;;;10.10;;
20040;SDS011;10181;48.072;9.884;2023-02-18T10:22:13;34.93;;;33.53;;
20040;SDS011;10181;48.072;9.884;2023-02-18T10:24:45;5.87;;;5.77;;
20040;SDS011;10181;48.072;9.884;2023-02-18T10:27:19;45.43;;;43.53;;
20040;SDS011;10181;48.072;9.884;2023-02-18T10:29:55;4.90;;;4.73;;
20040;SDS011;10181;48.072;9.884;2023-02-18T10:32:27;4.80;;;4.70;;
20040;SDS011;10181;48.072;9.884;2023-02-18T10:43:37;3.40;;;3.30;;
20040;SDS011;10181;48.072;9.884;2023-02-18T10:51:51;2.90;;;2.80;;
20040;SDS011;10181;48.072;9.884;2023-02-18T10:54:24;15.03;;;14.63;;
20040;SDS011;10181;48.072;9.884;2023-02-18T10:56:51;16.27;;;15.87;;
20040;SDS011;10181;48.072;9.884;2023-02-18T10:59:23;15.97;;;15.57;;
20040;SDS011;10181;48.072;9.884;2023-02-18T11:02:02;11.47;;;11.17;;
20040;SDS011;10181;48.072;9.884;2023-02-18T11:04:39;4.47;;;4.37;;
20040;SDS011;10181;48.072;9.884;2023-02-18T11:09:51;8.00;;;7.80;;
20040;SDS011;10181;48.072;9.884;2023-02-18T11:12:21;1.13;;;1.13;;
20040;SDS011;10181;48.072;9.884;2023-02-18T11:15:04;5.53;;;5.43;;
20040;SDS011;10181;48.072;9.884;2023-02-18T11:17:43;9.57;;;9.27;;
20040;SDS011;10181;48.072;9.884;2023-02-18T11:20:24;4.00;;;3.87;;
20040;SDS011;10181;48.072;9.884;2023-02-18T11:22:50;6.87;;;6.57;;
20040;SDS011;10181;48.072;9.884;2023-02-18T11:25:21;1.80;;;1.80;;
20040;SDS011;10181;48.072;9.884;2023-02-18T11:27:56;5.90;;;5.70;;
20040;SDS011;10181;48.072;9.884;2023-02-18T11:30:39;1.10;;;1.10;;
20040;SDS011;10181;48.072;9.884;2023-02-18T11:33:09;1.40;;;1.40;;
20040;SDS011;10181;48.072;9.884;2023-02-18T11:35:49;3.67;;;3.57;;
20040;SDS011;10181;48.072;9.884;2023-02-18T11:38:25;2.47;;;2.37;;
20040;SDS011;10181;48.072;9.884;2023-02-18T11:41:03;4.13;;;4.03;;
20040;SDS011;10181;48.072;9.884;2023-02-18T11:43:33;1.20;;;1.20;;
20040;SDS011;10181;48.072;9.884;2023-02-18T11:48:47;1.20;;;1.20;;
20040;SDS011;10181;48.072;9.884;2023-02-18T11:51:25;1.63;;;1.63;;
20040;SDS011;10181;48.072;9.884;2023-02-18T11:54:03;1.60;;;1.60;;
20040;SDS011;10181;48.072;9.884;2023-02-18T11:56:45;2.00;;;2.00;;
20040;SDS011;10181;48.072;9.884;2023-02-18T11:59:34;1.77;;;1.77;;
20040;SDS011;10181;48.072;9.884;2023-02-18T12:04:28;2.20;;;2.20;;
20040;SDS011;10181;48.072;9.884;2023-02-18T12:09:41;2.13;;;2.13;;
20040;SDS011;10181;48.072;9.884;2023-02-18T12:12:25;3.30;;;3.20;;
20040;SDS011;10181;48.072;9.884;2023-02-18T12:14:58;2.33;;;2.33;;
20040;SDS011;10181;48.072;9.884;2023-02-18T12:23:03;1.40;;;1.40;;
20040;SDS011;10181;48.072;9.884;2023-02-18T12:31:29;10.43;;;10.13;;
20040;SDS011;10181;48.072;9.884;2023-02-18T12:34:32;62.60;;;60.27;;
20040;SDS011;10181;48.072;9.884;2023-02-18T12:40:21;77.40;;;74.57;;
20040;SDS011;10181;48.072;9.884;2023-02-18T12:43:14;75.17;;;72.40;;
20040;SDS011;10181;48.072;9.884;2023-02-18T13:05:13;14.37;;;13.93;;
20040;SDS011;10181;48.072;9.884;2023-02-18T13:07:54;20.07;;;19.40;;
20040;SDS011;10181;48.072;9.884;2023-02-18T13:10:41;13.37;;;12.97;;
20040;SDS011;10181;48.072;9.884;2023-02-18T13:13:18;7.53;;;7.33;;
20040;SDS011;10181;48.072;9.884;2023-02-18T13:15:53;6.00;;;5.80;;
20040;SDS011;10181;48.072;9.884;2023-02-18T13:18:35;9.23;;;8.93;;
20040;SDS011;10181;48.072;9.884;2023-02-18T13:21:05;11.60;;;11.23;;
20040;SDS011;10181;48.072;9.884;2023-02-18T13:23:34;45.10;;;43.50;;
20040;SDS011;10181;48.072;9.884;2023-02-18T13:26:04;93.77;;;89.87;;
20040;SDS011;10181;48.072;9.884;2023-02-18T13:39:31;52.93;;;50.97;;
20040;SDS011;10181;48.072;9.884;2023-02-18T13:47:40;6.93;;;6.73;;
20040;SDS011;10181;48.072;9.884;2023-02-18T13:50:14;5.43;;;5.33;;
20040;SDS011;10181;48.072;9.884;2023-02-18T14:01:24;4.07;;;3.97;;
20040;SDS011;10181;48.072;9.884;2023-02-18T14:04:31;3.60;;;3.50;;
20040;SDS011;10181;48.072;9.884;2023-02-18T14:12:40;3.90;;;3.80;;
20040;SDS011;10181;48.072;9.884;2023-02-18T14:31:03;4.97;;;3.73;;
20040;SDS011;10181;48.072;9.884;2023-02-18T14:33:35;5.67;;;5.57;;
20040;SDS011;10181;48.072;9.884;2023-02-18T14:36:24;9.43;;;9.23;;
20040;SDS011;10181;48.072;9.884;2023-02-18T14:44:09;6.93;;;6.73;;
20040;SDS011;10181;48.072;9.884;2023-02-18T14:51:55;29.27;;;28.30;;
20040;SDS011;10181;48.072;9.884;2023-02-18T14:54:22;12.67;;;11.97;;
20040;SDS011;10181;48.072;9.884;2023-02-18T14:59:42;3.40;;;3.30;;
20040;SDS011;10181;48.072;9.884;2023-02-18T15:02:19;4.27;;;4.17;;
20040;SDS011;10181;48.072;9.884;2023-02-18T15:04:47;5.00;;;4.90;;
20040;SDS011;10181;48.072;9.884;2023-02-18T15:07:16;5.13;;;5.00;;
20040;SDS011;10181;48.072;9.884;2023-02-18T15:09:48;6.73;;;6.53;;
20040;SDS011;10181;48.072;9.884;2023-02-18T15:12:20;12.50;;;12.00;;
20040;SDS011;10181;48.072;9.884;2023-02-18T15:14:49;9.93;;;9.63;;
20040;SDS011;10181;48.072;9.884;2023-02-18T15:17:23;6.37;;;6.17;;
20040;SDS011;10181;48.072;9.884;2023-02-18T15:19:57;6.40;;;6.20;;
20040;SDS011;10181;48.072;9.884;2023-02-18T15:22:30;6.70;;;6.50;;
20040;SDS011;10181;48.072;9.884;2023-02-18T15:24:59;6.30;;;6.10;;
20040;SDS011;10181;48.072;9.884;2023-02-18T15:27:27;6.13;;;5.93;;
20040;SDS011;10181;48.072;9.884;2023-02-18T15:32:50;6.40;;;6.20;;
20040;SDS011;10181;48.072;9.884;2023-02-18T15:35:17;6.60;;;6.40;;
20040;SDS011;10181;48.072;9.884;2023-02-18T15:37:50;8.73;;;8.53;;
20040;SDS011;10181;48.072;9.884;2023-02-18T15:40:18;7.70;;;7.50;;
20040;SDS011;10181;48.072;9.884;2023-02-18T15:42:48;9.20;;;8.90;;
20040;SDS011;10181;48.072;9.884;2023-02-18T15:47:42;6.00;;;5.90;;
20040;SDS011;10181;48.072;9.884;2023-02-18T15:50:14;6.03;;;5.83;;
20040;SDS011;10181;48.072;9.884;2023-02-18T15:52:45;5.80;;;5.70;;
20040;SDS011;10181;48.072;9.884;2023-02-18T15:55:14;6.80;;;6.60;;
20040;SDS011;10181;48.072;9.884;2023-02-18T15:58:03;6.20;;;6.10;;
20040;SDS011;10181;48.072;9.884;2023-02-18T16:00:46;6.33;;;6.13;;
20040;SDS011;10181;48.072;9.884;2023-02-18T16:03:23;5.97;;;5.80;;
20040;SDS011;10181;48.072;9.884;2023-02-18T16:06:06;5.53;;;5.40;;
20040;SDS011;10181;48.072;9.884;2023-02-18T16:08:33;5.20;;;5.10;;
20040;SDS011;10181;48.072;9.884;2023-02-18T16:13:26;6.07;;;5.87;;
20040;SDS011;10181;48.072;9.884;2023-02-18T16:15:54;6.47;;;6.27;;
20040;SDS011;10181;48.072;9.884;2023-02-18T16:18:28;5.37;;;5.27;;
20040;SDS011;10181;48.072;9.884;2023-02-18T16:23:44;5.67;;;5.53;;
20040;SDS011;10181;48.072;9.884;2023-02-18T16:28:52;5.53;;;5.23;;
20040;SDS011;10181;48.072;9.884;2023-02-18T16:31:19;5.70;;;5.50;;
20040;SDS011;10181;48.072;9.884;2023-02-18T16:33:45;5.07;;;4.97;;
20040;SDS011;10181;48.072;9.884;2023-02-18T16:36:13;4.13;;;4.03;;
20040;SDS011;10181;48.072;9.884;2023-02-18T16:38:40;4.17;;;4.07;;
20040;SDS011;10181;48.072;9.884;2023-02-18T16:41:07;3.10;;;3.00;;
20040;SDS011;10181;48.072;9.884;2023-02-18T16:43:34;4.13;;;4.03;;
20040;SDS011;10181;48.072;9.884;2023-02-18T16:46:33;4.80;;;4.70;;
20040;SDS011;10181;48.072;9.884;2023-02-18T16:48:54;2.90;;;2.90;;
20040;SDS011;10181;48.072;9.884;2023-02-18T16:53:56;3.30;;;3.20;;
20040;SDS011;10181;48.072;9.884;2023-02-18T16:56:26;7.83;;;7.63;;
20040;SDS011;10181;48.072;9.884;2023-02-18T16:58:56;8.13;;;7.83;;
20040;SDS011;10181;48.072;9.884;2023-02-18T17:01:26;6.90;;;6.70;;
20040;SDS011;10181;48.072;9.884;2023-02-18T17:03:54;6.83;;;6.57;;
20040;SDS011;10181;48.072;9.884;2023-02-18T17:06:20;14.07;;;13.53;;
20040;SDS011;10181;48.072;9.884;2023-02-18T17:08:46;12.83;;;12.40;;
20040;SDS011;10181;48.072;9.884;2023-02-18T17:11:20;6.03;;;5.90;;
20040;SDS011;10181;48.072;9.884;2023-02-18T17:13:50;7.37;;;7.07;;
20040;SDS011;10181;48.072;9.884;2023-02-18T17:16:17;19.17;;;17.43;;
20040;SDS011;10181;48.072;9.884;2023-02-18T17:18:44;7.90;;;7.60;;
20040;SDS011;10181;48.072;9.884;2023-02-18T17:21:14;3.20;;;3.10;;
20040;SDS011;10181;48.072;9.884;2023-02-18T17:23:41;2.60;;;2.50;;
20040;SDS011;10181;48.072;9.884;2023-02-18T17:28:45;3.00;;;2.97;;
20040;SDS011;10181;48.072;9.884;2023-02-18T17:31:13;2.90;;;2.80;;
20040;SDS011;10181;48.072;9.884;2023-02-18T17:33:41;2.33;;;2.33;;
20040;SDS011;10181;48.072;9.884;2023-02-18T17:36:09;2.83;;;2.73;;
20040;SDS011;10181;48.072;9.884;2023-02-18T17:38:35;2.80;;;2.70;;
20040;SDS011;10181;48.072;9.884;2023-02-18T17:41:01;2.67;;;2.57;;
20040;SDS011;10181;48.072;9.884;2023-02-18T17:43:27;6.33;;;6.17;;
20040;SDS011;10181;48.072;9.884;2023-02-18T17:45:53;5.47;;;5.37;;